sensor_id;sensor_type;location;lat;lon;timestamp;temperature;humidity
16404;DHT22;8311;50.158;8.642;2022-12-18T00:02:13;14.80;47.20
16404;DHT22;8311;50.158;8.642;2022-12-18T00:05:07;14.80;47.20
16404;DHT22;8311;50.158;8.642;2022-12-18T00:08:00;14.80;47.20
16404;DHT22;8311;50.158;8.642;2022-12-18T00:11:03;14.80;47.20
16404;DHT22;8311;50.158;8.642;2022-12-18T00:13:58;14.80;47.20
16404;DHT22;8311;50.158;8.642;2022-12-18T00:16:54;14.80;47.20
16404;DHT22;8311;50.158;8.642;2022-12-18T00:19:46;14.80;47.20
16404;DHT22;8311;50.158;8.642;2022-12-18T00:22:40;14.80;47.20
16404;DHT22;8311;50.158;8.642;2022-12-18T00:25:33;14.80;47.20
16404;DHT22;8311;50.158;8.642;2022-12-18T00:28:27;14.80;47.20
16404;DHT22;8311;50.158;8.642;2022-12-18T00:31:21;14.80;47.20
16404;DHT22;8311;50.158;8.642;2022-12-18T00:34:16;14.80;47.20
16404;DHT22;8311;50.158;8.642;2022-12-18T00:37:08;14.80;47.20
16404;DHT22;8311;50.158;8.642;2022-12-18T00:40:08;14.80;47.20
16404;DHT22;8311;50.158;8.642;2022-12-18T00:43:01;14.80;47.20
16404;DHT22;8311;50.158;8.642;2022-12-18T00:45:54;14.80;47.20
16404;DHT22;8311;50.158;8.642;2022-12-18T00:48:47;14.80;47.20
16404;DHT22;8311;50.158;8.642;2022-12-18T00:51:42;14.80;47.20
16404;DHT22;8311;50.158;8.642;2022-12-18T00:54:35;14.80;47.80
16404;DHT22;8311;50.158;8.642;2022-12-18T00:57:28;14.80;47.20
16404;DHT22;8311;50.158;8.642;2022-12-18T01:00:22;14.80;47.20
16404;DHT22;8311;50.158;8.642;2022-12-18T01:03:14;14.80;47.20
16404;DHT22;8311;50.158;8.642;2022-12-18T01:06:11;14.80;47.20
16404;DHT22;8311;50.158;8.642;2022-12-18T01:09:06;14.80;47.20
16404;DHT22;8311;50.158;8.642;2022-12-18T01:11:59;14.80;47.20
16404;DHT22;8311;50.158;8.642;2022-12-18T01:14:52;14.80;47.20
16404;DHT22;8311;50.158;8.642;2022-12-18T01:17:46;14.80;47.20
16404;DHT22;8311;50.158;8.642;2022-12-18T01:20:38;14.80;47.20
16404;DHT22;8311;50.158;8.642;2022-12-18T01:23:31;14.80;47.20
16404;DHT22;8311;50.158;8.642;2022-12-18T01:26:25;14.80;47.20
16404;DHT22;8311;50.158;8.642;2022-12-18T01:29:22;14.80;47.20
16404;DHT22;8311;50.158;8.642;2022-12-18T01:32:14;14.80;47.20
16404;DHT22;8311;50.158;8.642;2022-12-18T01:35:08;14.80;47.20
16404;DHT22;8311;50.158;8.642;2022-12-18T01:38:00;14.80;47.10
16404;DHT22;8311;50.158;8.642;2022-12-18T01:40:57;14.80;47.20
16404;DHT22;8311;50.158;8.642;2022-12-18T01:43:54;14.80;47.20
16404;DHT22;8311;50.158;8.642;2022-12-18T01:46:49;14.80;47.20
16404;DHT22;8311;50.158;8.642;2022-12-18T01:49:41;14.80;47.20
16404;DHT22;8311;50.158;8.642;2022-12-18T01:52:36;14.80;47.20
16404;DHT22;8311;50.158;8.642;2022-12-18T01:55:32;14.80;47.20
16404;DHT22;8311;50.158;8.642;2022-12-18T01:58:32;14.80;47.20
16404;DHT22;8311;50.158;8.642;2022-12-18T02:01:29;14.80;47.20
16404;DHT22;8311;50.158;8.642;2022-12-18T02:04:25;14.80;47.10
16404;DHT22;8311;50.158;8.642;2022-12-18T02:07:26;14.80;47.20
16404;DHT22;8311;50.158;8.642;2022-12-18T02:10:26;14.70;47.10
16404;DHT22;8311;50.158;8.642;2022-12-18T02:13:22;14.80;47.10
16404;DHT22;8311;50.158;8.642;2022-12-18T02:16:24;14.80;47.10
16404;DHT22;8311;50.158;8.642;2022-12-18T02:19:35;14.70;47.10
16404;DHT22;8311;50.158;8.642;2022-12-18T02:22:38;14.80;47.10
16404;DHT22;8311;50.158;8.642;2022-12-18T02:25:44;14.70;47.10
16404;DHT22;8311;50.158;8.642;2022-12-18T02:28:43;14.80;47.30
16404;DHT22;8311;50.158;8.642;2022-12-18T02:31:40;14.80;47.10
16404;DHT22;8311;50.158;8.642;2022-12-18T02:34:37;14.80;47.10
16404;DHT22;8311;50.158;8.642;2022-12-18T02:37:31;14.80;47.80
16404;DHT22;8311;50.158;8.642;2022-12-18T02:40:27;14.80;47.20
16404;DHT22;8311;50.158;8.642;2022-12-18T02:43:21;14.80;47.10
16404;DHT22;8311;50.158;8.642;2022-12-18T02:46:30;14.80;47.10
16404;DHT22;8311;50.158;8.642;2022-12-18T02:49:39;14.70;47.10
16404;DHT22;8311;50.158;8.642;2022-12-18T02:52:39;14.80;47.20
16404;DHT22;8311;50.158;8.642;2022-12-18T02:55:44;14.70;47.10
16404;DHT22;8311;50.158;8.642;2022-12-18T02:58:46;14.80;47.10
16404;DHT22;8311;50.158;8.642;2022-12-18T03:01:45;14.80;47.10
16404;DHT22;8311;50.158;8.642;2022-12-18T03:04:47;14.80;47.10
16404;DHT22;8311;50.158;8.642;2022-12-18T03:07:46;14.70;47.10
16404;DHT22;8311;50.158;8.642;2022-12-18T03:10:44;14.70;47.10
16404;DHT22;8311;50.158;8.642;2022-12-18T03:13:42;14.70;47.10
16404;DHT22;8311;50.158;8.642;2022-12-18T03:16:36;14.70;47.10
16404;DHT22;8311;50.158;8.642;2022-12-18T03:19:32;14.70;47.10
16404;DHT22;8311;50.158;8.642;2022-12-18T03:22:27;14.70;47.10
16404;DHT22;8311;50.158;8.642;2022-12-18T03:25:24;14.70;47.10
16404;DHT22;8311;50.158;8.642;2022-12-18T03:28:20;14.70;47.10
16404;DHT22;8311;50.158;8.642;2022-12-18T03:31:14;14.70;47.10
16404;DHT22;8311;50.158;8.642;2022-12-18T03:34:13;14.70;47.10
16404;DHT22;8311;50.158;8.642;2022-12-18T03:37:09;14.70;47.10
16404;DHT22;8311;50.158;8.642;2022-12-18T03:40:04;14.70;47.10
16404;DHT22;8311;50.158;8.642;2022-12-18T03:43:02;14.70;47.10
16404;DHT22;8311;50.158;8.642;2022-12-18T03:46:02;14.70;47.10
16404;DHT22;8311;50.158;8.642;2022-12-18T03:49:01;14.70;47.10
16404;DHT22;8311;50.158;8.642;2022-12-18T03:52:02;14.70;47.10
16404;DHT22;8311;50.158;8.642;2022-12-18T03:54:59;14.70;47.10
16404;DHT22;8311;50.158;8.642;2022-12-18T03:57:55;14.70;47.10
16404;DHT22;8311;50.158;8.642;2022-12-18T04:00:51;14.70;47.10
16404;DHT22;8311;50.158;8.642;2022-12-18T04:03:46;14.70;47.10
16404;DHT22;8311;50.158;8.642;2022-12-18T04:06:43;14.70;47.10
16404;DHT22;8311;50.158;8.642;2022-12-18T04:09:38;14.70;47.10
16404;DHT22;8311;50.158;8.642;2022-12-18T04:12:34;14.70;47.10
16404;DHT22;8311;50.158;8.642;2022-12-18T04:15:27;14.70;47.10
16404;DHT22;8311;50.158;8.642;2022-12-18T04:18:20;14.70;47.10
16404;DHT22;8311;50.158;8.642;2022-12-18T04:21:12;14.70;47.10
16404;DHT22;8311;50.158;8.642;2022-12-18T04:24:06;14.70;47.10
16404;DHT22;8311;50.158;8.642;2022-12-18T04:27:00;14.70;47.10
16404;DHT22;8311;50.158;8.642;2022-12-18T04:29:55;14.70;47.10
16404;DHT22;8311;50.158;8.642;2022-12-18T04:32:48;14.70;47.10
16404;DHT22;8311;50.158;8.642;2022-12-18T04:35:42;14.70;47.10
16404;DHT22;8311;50.158;8.642;2022-12-18T04:38:35;14.70;47.10
16404;DHT22;8311;50.158;8.642;2022-12-18T04:41:29;14.70;47.10
16404;DHT22;8311;50.158;8.642;2022-12-18T04:44:22;14.70;47.10
16404;DHT22;8311;50.158;8.642;2022-12-18T04:47:16;14.60;47.00
16404;DHT22;8311;50.158;8.642;2022-12-18T04:50:09;14.60;47.00
16404;DHT22;8311;50.158;8.642;2022-12-18T04:53:03;14.70;47.10
16404;DHT22;8311;50.158;8.642;2022-12-18T04:56:06;14.70;47.10
16404;DHT22;8311;50.158;8.642;2022-12-18T04:59:01;14.60;47.00
16404;DHT22;8311;50.158;8.642;2022-12-18T05:01:53;14.70;47.10
16404;DHT22;8311;50.158;8.642;2022-12-18T05:04:48;14.60;47.00
16404;DHT22;8311;50.158;8.642;2022-12-18T05:07:41;14.70;47.10
16404;DHT22;8311;50.158;8.642;2022-12-18T05:10:34;14.70;47.10
16404;DHT22;8311;50.158;8.642;2022-12-18T05:13:29;14.60;47.00
16404;DHT22;8311;50.158;8.642;2022-12-18T05:16:23;14.60;47.00
16404;DHT22;8311;50.158;8.642;2022-12-18T05:19:16;14.60;47.00
16404;DHT22;8311;50.158;8.642;2022-12-18T05:22:11;14.60;47.00
16404;DHT22;8311;50.158;8.642;2022-12-18T05:25:05;14.60;47.00
16404;DHT22;8311;50.158;8.642;2022-12-18T05:27:59;14.60;47.00
16404;DHT22;8311;50.158;8.642;2022-12-18T05:30:53;14.60;47.00
16404;DHT22;8311;50.158;8.642;2022-12-18T05:33:46;14.60;47.00
16404;DHT22;8311;50.158;8.642;2022-12-18T05:36:39;14.60;47.00
16404;DHT22;8311;50.158;8.642;2022-12-18T05:39:34;14.70;47.10
16404;DHT22;8311;50.158;8.642;2022-12-18T05:42:26;14.60;47.60
16404;DHT22;8311;50.158;8.642;2022-12-18T05:45:20;14.60;47.00
16404;DHT22;8311;50.158;8.642;2022-12-18T05:48:12;14.60;47.00
16404;DHT22;8311;50.158;8.642;2022-12-18T05:51:07;14.60;47.00
16404;DHT22;8311;50.158;8.642;2022-12-18T05:54:01;14.60;47.00
16404;DHT22;8311;50.158;8.642;2022-12-18T05:56:56;14.60;47.00
16404;DHT22;8311;50.158;8.642;2022-12-18T05:59:50;14.60;47.00
16404;DHT22;8311;50.158;8.642;2022-12-18T06:02:46;14.60;47.60
16404;DHT22;8311;50.158;8.642;2022-12-18T06:05:42;14.60;47.00
16404;DHT22;8311;50.158;8.642;2022-12-18T06:08:36;14.60;47.00
16404;DHT22;8311;50.158;8.642;2022-12-18T06:11:37;14.60;47.00
16404;DHT22;8311;50.158;8.642;2022-12-18T06:14:32;14.60;47.60
16404;DHT22;8311;50.158;8.642;2022-12-18T06:17:27;14.60;47.00
16404;DHT22;8311;50.158;8.642;2022-12-18T06:20:21;14.60;47.00
16404;DHT22;8311;50.158;8.642;2022-12-18T06:23:14;14.60;47.00
16404;DHT22;8311;50.158;8.642;2022-12-18T06:26:07;14.60;47.00
16404;DHT22;8311;50.158;8.642;2022-12-18T06:29:01;14.60;47.00
16404;DHT22;8311;50.158;8.642;2022-12-18T06:31:58;14.60;47.00
16404;DHT22;8311;50.158;8.642;2022-12-18T06:35:07;14.60;47.00
16404;DHT22;8311;50.158;8.642;2022-12-18T06:38:01;14.60;47.00
16404;DHT22;8311;50.158;8.642;2022-12-18T06:40:55;14.60;47.00
16404;DHT22;8311;50.158;8.642;2022-12-18T06:43:47;14.60;47.00
16404;DHT22;8311;50.158;8.642;2022-12-18T06:46:41;14.60;47.00
16404;DHT22;8311;50.158;8.642;2022-12-18T06:49:35;14.60;47.00
16404;DHT22;8311;50.158;8.642;2022-12-18T06:52:28;14.60;47.00
16404;DHT22;8311;50.158;8.642;2022-12-18T06:55:24;14.60;47.00
16404;DHT22;8311;50.158;8.642;2022-12-18T06:58:17;14.60;47.00
16404;DHT22;8311;50.158;8.642;2022-12-18T07:01:11;14.60;47.00
16404;DHT22;8311;50.158;8.642;2022-12-18T07:04:05;14.50;47.00
16404;DHT22;8311;50.158;8.642;2022-12-18T07:06:59;14.60;47.00
16404;DHT22;8311;50.158;8.642;2022-12-18T07:09:53;14.60;47.00
16404;DHT22;8311;50.158;8.642;2022-12-18T07:12:46;14.60;47.00
16404;DHT22;8311;50.158;8.642;2022-12-18T07:15:39;14.60;47.00
16404;DHT22;8311;50.158;8.642;2022-12-18T07:18:34;14.50;46.90
16404;DHT22;8311;50.158;8.642;2022-12-18T07:21:27;14.50;47.00
16404;DHT22;8311;50.158;8.642;2022-12-18T07:24:21;14.50;46.90
16404;DHT22;8311;50.158;8.642;2022-12-18T07:27:14;14.50;46.90
16404;DHT22;8311;50.158;8.642;2022-12-18T07:30:09;14.60;47.00
16404;DHT22;8311;50.158;8.642;2022-12-18T07:33:03;14.50;47.00
16404;DHT22;8311;50.158;8.642;2022-12-18T07:35:56;14.50;47.00
16404;DHT22;8311;50.158;8.642;2022-12-18T07:38:49;14.50;47.00
16404;DHT22;8311;50.158;8.642;2022-12-18T07:41:45;14.50;46.90
16404;DHT22;8311;50.158;8.642;2022-12-18T07:44:59;14.50;47.00
16404;DHT22;8311;50.158;8.642;2022-12-18T07:47:52;14.50;47.00
16404;DHT22;8311;50.158;8.642;2022-12-18T07:50:46;14.50;46.90
16404;DHT22;8311;50.158;8.642;2022-12-18T07:53:39;14.50;47.00
16404;DHT22;8311;50.158;8.642;2022-12-18T07:56:33;14.50;46.90
16404;DHT22;8311;50.158;8.642;2022-12-18T07:59:28;14.50;46.90
16404;DHT22;8311;50.158;8.642;2022-12-18T08:02:22;14.50;46.90
16404;DHT22;8311;50.158;8.642;2022-12-18T08:05:16;14.50;47.00
16404;DHT22;8311;50.158;8.642;2022-12-18T08:08:09;14.50;46.90
16404;DHT22;8311;50.158;8.642;2022-12-18T08:11:03;14.50;46.90
16404;DHT22;8311;50.158;8.642;2022-12-18T08:13:56;14.50;47.00
16404;DHT22;8311;50.158;8.642;2022-12-18T08:16:51;14.50;47.00
16404;DHT22;8311;50.158;8.642;2022-12-18T08:19:45;14.50;46.90
16404;DHT22;8311;50.158;8.642;2022-12-18T08:22:38;14.50;46.90
16404;DHT22;8311;50.158;8.642;2022-12-18T08:25:31;14.50;47.00
16404;DHT22;8311;50.158;8.642;2022-12-18T08:28:24;14.50;46.90
16404;DHT22;8311;50.158;8.642;2022-12-18T08:31:18;14.50;46.90
16404;DHT22;8311;50.158;8.642;2022-12-18T08:34:14;14.50;46.90
16404;DHT22;8311;50.158;8.642;2022-12-18T08:37:07;14.50;47.00
16404;DHT22;8311;50.158;8.642;2022-12-18T08:40:00;14.50;46.90
16404;DHT22;8311;50.158;8.642;2022-12-18T08:42:53;14.50;47.00
16404;DHT22;8311;50.158;8.642;2022-12-18T08:46:04;14.50;47.00
16404;DHT22;8311;50.158;8.642;2022-12-18T08:48:58;14.50;46.90
16404;DHT22;8311;50.158;8.642;2022-12-18T08:51:55;14.50;47.00
16404;DHT22;8311;50.158;8.642;2022-12-18T08:54:49;14.50;46.90
16404;DHT22;8311;50.158;8.642;2022-12-18T08:57:42;14.50;47.00
16404;DHT22;8311;50.158;8.642;2022-12-18T09:00:36;14.50;47.00
16404;DHT22;8311;50.158;8.642;2022-12-18T09:03:29;14.50;47.00
16404;DHT22;8311;50.158;8.642;2022-12-18T09:06:23;14.50;47.00
16404;DHT22;8311;50.158;8.642;2022-12-18T09:09:19;14.50;47.00
16404;DHT22;8311;50.158;8.642;2022-12-18T09:12:13;14.50;47.00
16404;DHT22;8311;50.158;8.642;2022-12-18T09:15:06;14.50;47.00
16404;DHT22;8311;50.158;8.642;2022-12-18T09:18:00;14.50;47.00
16404;DHT22;8311;50.158;8.642;2022-12-18T09:20:53;14.40;47.00
16404;DHT22;8311;50.158;8.642;2022-12-18T09:23:49;14.50;47.00
16404;DHT22;8311;50.158;8.642;2022-12-18T09:26:44;14.50;47.00
16404;DHT22;8311;50.158;8.642;2022-12-18T09:29:39;14.50;47.60
16404;DHT22;8311;50.158;8.642;2022-12-18T09:32:31;14.50;47.00
16404;DHT22;8311;50.158;8.642;2022-12-18T09:35:25;14.50;47.00
16404;DHT22;8311;50.158;8.642;2022-12-18T09:38:19;14.40;47.00
16404;DHT22;8311;50.158;8.642;2022-12-18T09:41:30;14.50;47.10
16404;DHT22;8311;50.158;8.642;2022-12-18T09:44:30;14.40;47.00
16404;DHT22;8311;50.158;8.642;2022-12-18T09:47:36;14.40;47.00
16404;DHT22;8311;50.158;8.642;2022-12-18T09:50:34;14.40;47.10
16404;DHT22;8311;50.158;8.642;2022-12-18T09:53:31;14.40;47.10
16404;DHT22;8311;50.158;8.642;2022-12-18T09:56:28;14.40;47.10
16404;DHT22;8311;50.158;8.642;2022-12-18T09:59:25;14.40;47.00
16404;DHT22;8311;50.158;8.642;2022-12-18T10:02:22;14.40;47.10
16404;DHT22;8311;50.158;8.642;2022-12-18T10:05:17;14.40;47.70
16404;DHT22;8311;50.158;8.642;2022-12-18T10:08:16;14.40;47.10
16404;DHT22;8311;50.158;8.642;2022-12-18T10:11:34;14.50;47.10
16404;DHT22;8311;50.158;8.642;2022-12-18T10:14:35;14.40;47.10
16404;DHT22;8311;50.158;8.642;2022-12-18T10:17:37;14.40;47.10
16404;DHT22;8311;50.158;8.642;2022-12-18T10:20:35;14.40;47.10
16404;DHT22;8311;50.158;8.642;2022-12-18T10:23:36;14.40;47.10
16404;DHT22;8311;50.158;8.642;2022-12-18T10:26:40;14.40;47.10
16404;DHT22;8311;50.158;8.642;2022-12-18T10:29:34;14.40;47.10
16404;DHT22;8311;50.158;8.642;2022-12-18T10:32:28;14.40;47.10
16404;DHT22;8311;50.158;8.642;2022-12-18T10:35:25;14.40;47.10
16404;DHT22;8311;50.158;8.642;2022-12-18T10:38:24;14.40;47.10
16404;DHT22;8311;50.158;8.642;2022-12-18T10:41:26;14.40;47.10
16404;DHT22;8311;50.158;8.642;2022-12-18T10:44:21;14.40;47.10
16404;DHT22;8311;50.158;8.642;2022-12-18T10:47:18;14.40;47.10
16404;DHT22;8311;50.158;8.642;2022-12-18T10:50:20;14.40;47.10
16404;DHT22;8311;50.158;8.642;2022-12-18T10:53:30;14.40;47.10
16404;DHT22;8311;50.158;8.642;2022-12-18T10:56:26;14.40;47.10
16404;DHT22;8311;50.158;8.642;2022-12-18T10:59:20;14.40;47.10
16404;DHT22;8311;50.158;8.642;2022-12-18T11:02:26;14.40;47.10
16404;DHT22;8311;50.158;8.642;2022-12-18T11:05:27;14.40;47.70
16404;DHT22;8311;50.158;8.642;2022-12-18T11:08:21;14.40;47.20
16404;DHT22;8311;50.158;8.642;2022-12-18T11:11:20;14.40;47.10
16404;DHT22;8311;50.158;8.642;2022-12-18T11:14:17;14.40;47.10
16404;DHT22;8311;50.158;8.642;2022-12-18T11:17:18;14.40;47.20
16404;DHT22;8311;50.158;8.642;2022-12-18T11:20:27;14.40;47.20
16404;DHT22;8311;50.158;8.642;2022-12-18T11:23:22;14.40;47.20
16404;DHT22;8311;50.158;8.642;2022-12-18T11:26:17;14.40;47.20
16404;DHT22;8311;50.158;8.642;2022-12-18T11:29:17;14.40;47.20
16404;DHT22;8311;50.158;8.642;2022-12-18T11:32:27;14.40;47.20
16404;DHT22;8311;50.158;8.642;2022-12-18T11:35:35;14.40;47.20
16404;DHT22;8311;50.158;8.642;2022-12-18T11:38:33;14.40;47.20
16404;DHT22;8311;50.158;8.642;2022-12-18T11:41:32;14.40;47.20
16404;DHT22;8311;50.158;8.642;2022-12-18T11:44:48;14.40;47.20
16404;DHT22;8311;50.158;8.642;2022-12-18T11:47:48;14.40;47.20
16404;DHT22;8311;50.158;8.642;2022-12-18T11:50:48;14.40;47.20
16404;DHT22;8311;50.158;8.642;2022-12-18T11:53:42;14.40;47.20
16404;DHT22;8311;50.158;8.642;2022-12-18T11:56:39;14.40;47.20
16404;DHT22;8311;50.158;8.642;2022-12-18T11:59:40;14.40;47.20
16404;DHT22;8311;50.158;8.642;2022-12-18T12:06:17;14.40;47.20
16404;DHT22;8311;50.158;8.642;2022-12-18T12:09:17;14.40;47.20
16404;DHT22;8311;50.158;8.642;2022-12-18T12:12:28;14.40;47.20
16404;DHT22;8311;50.158;8.642;2022-12-18T12:15:46;14.40;47.20
16404;DHT22;8311;50.158;8.642;2022-12-18T12:19:00;14.40;47.20
16404;DHT22;8311;50.158;8.642;2022-12-18T12:21:59;14.40;47.20
16404;DHT22;8311;50.158;8.642;2022-12-18T12:25:10;14.30;47.80
16404;DHT22;8311;50.158;8.642;2022-12-18T12:28:15;14.40;47.20
16404;DHT22;8311;50.158;8.642;2022-12-18T12:31:23;14.40;47.20
16404;DHT22;8311;50.158;8.642;2022-12-18T12:34:23;14.40;47.30
16404;DHT22;8311;50.158;8.642;2022-12-18T12:37:28;14.40;47.20
16404;DHT22;8311;50.158;8.642;2022-12-18T12:40:28;14.40;47.30
16404;DHT22;8311;50.158;8.642;2022-12-18T12:43:46;14.40;47.20
16404;DHT22;8311;50.158;8.642;2022-12-18T12:46:43;14.40;47.30
16404;DHT22;8311;50.158;8.642;2022-12-18T12:49:39;14.40;47.30
16404;DHT22;8311;50.158;8.642;2022-12-18T12:52:37;14.30;47.20
16404;DHT22;8311;50.158;8.642;2022-12-18T12:55:33;14.40;47.30
16404;DHT22;8311;50.158;8.642;2022-12-18T12:58:33;14.40;47.30
16404;DHT22;8311;50.158;8.642;2022-12-18T13:01:38;14.40;47.30
16404;DHT22;8311;50.158;8.642;2022-12-18T13:04:38;14.40;47.30
16404;DHT22;8311;50.158;8.642;2022-12-18T13:07:39;14.30;47.20
16404;DHT22;8311;50.158;8.642;2022-12-18T13:10:34;14.30;47.20
16404;DHT22;8311;50.158;8.642;2022-12-18T13:13:48;14.40;47.30
16404;DHT22;8311;50.158;8.642;2022-12-18T13:16:43;14.30;47.20
16404;DHT22;8311;50.158;8.642;2022-12-18T13:19:37;14.30;47.20
16404;DHT22;8311;50.158;8.642;2022-12-18T13:22:34;14.30;47.20
16404;DHT22;8311;50.158;8.642;2022-12-18T13:25:33;14.30;47.20
16404;DHT22;8311;50.158;8.642;2022-12-18T13:28:51;14.30;47.20
16404;DHT22;8311;50.158;8.642;2022-12-18T13:32:00;14.30;47.20
16404;DHT22;8311;50.158;8.642;2022-12-18T13:35:37;14.30;47.20
16404;DHT22;8311;50.158;8.642;2022-12-18T13:38:36;14.30;47.20
16404;DHT22;8311;50.158;8.642;2022-12-18T13:41:29;14.30;47.20
16404;DHT22;8311;50.158;8.642;2022-12-18T13:44:26;14.30;47.90
16404;DHT22;8311;50.158;8.642;2022-12-18T13:47:31;14.30;47.20
16404;DHT22;8311;50.158;8.642;2022-12-18T13:50:26;14.30;47.20
16404;DHT22;8311;50.158;8.642;2022-12-18T13:53:30;14.30;47.30
16404;DHT22;8311;50.158;8.642;2022-12-18T13:56:26;14.30;47.30
16404;DHT22;8311;50.158;8.642;2022-12-18T13:59:21;14.30;47.30
16404;DHT22;8311;50.158;8.642;2022-12-18T14:02:17;14.30;47.90
16404;DHT22;8311;50.158;8.642;2022-12-18T14:05:23;14.30;47.30
16404;DHT22;8311;50.158;8.642;2022-12-18T14:08:16;14.30;47.30
16404;DHT22;8311;50.158;8.642;2022-12-18T14:11:19;14.60;46.50
16404;DHT22;8311;50.158;8.642;2022-12-18T14:14:14;14.80;46.20
16404;DHT22;8311;50.158;8.642;2022-12-18T14:17:09;14.70;46.80
16404;DHT22;8311;50.158;8.642;2022-12-18T14:20:04;14.80;46.80
16404;DHT22;8311;50.158;8.642;2022-12-18T14:23:26;14.80;46.60
16404;DHT22;8311;50.158;8.642;2022-12-18T14:26:22;14.90;46.70
16404;DHT22;8311;50.158;8.642;2022-12-18T14:29:25;14.90;46.80
16404;DHT22;8311;50.158;8.642;2022-12-18T14:32:19;15.00;46.90
16404;DHT22;8311;50.158;8.642;2022-12-18T14:35:13;15.00;46.90
16404;DHT22;8311;50.158;8.642;2022-12-18T14:38:20;15.10;46.60
16404;DHT22;8311;50.158;8.642;2022-12-18T14:41:16;15.10;46.80
16404;DHT22;8311;50.158;8.642;2022-12-18T14:44:12;15.20;47.00
16404;DHT22;8311;50.158;8.642;2022-12-18T14:47:12;15.20;46.80
16404;DHT22;8311;50.158;8.642;2022-12-18T14:50:12;15.30;47.00
16404;DHT22;8311;50.158;8.642;2022-12-18T14:53:06;15.20;46.90
16404;DHT22;8311;50.158;8.642;2022-12-18T14:56:01;15.30;47.00
16404;DHT22;8311;50.158;8.642;2022-12-18T14:58:57;15.30;46.90
16404;DHT22;8311;50.158;8.642;2022-12-18T15:01:59;15.40;46.10
16404;DHT22;8311;50.158;8.642;2022-12-18T15:05:00;15.50;45.80
16404;DHT22;8311;50.158;8.642;2022-12-18T15:07:58;15.60;45.60
16404;DHT22;8311;50.158;8.642;2022-12-18T15:10:52;15.60;45.30
16404;DHT22;8311;50.158;8.642;2022-12-18T15:13:46;15.70;45.40
16404;DHT22;8311;50.158;8.642;2022-12-18T15:16:40;15.70;45.30
16404;DHT22;8311;50.158;8.642;2022-12-18T15:19:39;15.80;45.20
16404;DHT22;8311;50.158;8.642;2022-12-18T15:22:35;15.80;45.40
16404;DHT22;8311;50.158;8.642;2022-12-18T15:25:32;15.80;45.20
16404;DHT22;8311;50.158;8.642;2022-12-18T15:28:32;15.90;45.40
16404;DHT22;8311;50.158;8.642;2022-12-18T15:31:31;15.90;45.30
16404;DHT22;8311;50.158;8.642;2022-12-18T15:34:27;15.90;45.10
16404;DHT22;8311;50.158;8.642;2022-12-18T15:37:20;16.00;44.90
16404;DHT22;8311;50.158;8.642;2022-12-18T15:40:15;16.00;44.90
16404;DHT22;8311;50.158;8.642;2022-12-18T15:43:08;16.00;44.70
16404;DHT22;8311;50.158;8.642;2022-12-18T15:46:35;16.00;44.90
16404;DHT22;8311;50.158;8.642;2022-12-18T15:49:29;16.00;45.00
16404;DHT22;8311;50.158;8.642;2022-12-18T15:52:22;16.00;45.10
16404;DHT22;8311;50.158;8.642;2022-12-18T15:55:19;16.10;45.30
16404;DHT22;8311;50.158;8.642;2022-12-18T15:58:31;16.10;46.00
16404;DHT22;8311;50.158;8.642;2022-12-18T16:01:27;16.10;46.20
16404;DHT22;8311;50.158;8.642;2022-12-18T16:04:22;16.10;46.20
16404;DHT22;8311;50.158;8.642;2022-12-18T16:07:18;16.10;46.30
16404;DHT22;8311;50.158;8.642;2022-12-18T16:10:16;16.10;46.30
16404;DHT22;8311;50.158;8.642;2022-12-18T16:13:10;16.20;46.40
16404;DHT22;8311;50.158;8.642;2022-12-18T16:16:04;16.10;46.30
16404;DHT22;8311;50.158;8.642;2022-12-18T16:18:57;16.20;46.30
16404;DHT22;8311;50.158;8.642;2022-12-18T16:21:55;16.20;46.10
16404;DHT22;8311;50.158;8.642;2022-12-18T16:24:50;16.20;46.20
16404;DHT22;8311;50.158;8.642;2022-12-18T16:27:43;16.30;46.10
16404;DHT22;8311;50.158;8.642;2022-12-18T16:30:38;16.30;46.10
16404;DHT22;8311;50.158;8.642;2022-12-18T16:33:32;16.30;46.00
16404;DHT22;8311;50.158;8.642;2022-12-18T16:36:25;16.30;46.10
16404;DHT22;8311;50.158;8.642;2022-12-18T16:39:20;16.40;46.30
16404;DHT22;8311;50.158;8.642;2022-12-18T16:42:16;16.40;46.40
16404;DHT22;8311;50.158;8.642;2022-12-18T16:45:13;16.40;46.60
16404;DHT22;8311;50.158;8.642;2022-12-18T16:48:07;16.40;46.70
16404;DHT22;8311;50.158;8.642;2022-12-18T16:51:02;16.40;46.70
16404;DHT22;8311;50.158;8.642;2022-12-18T16:53:56;16.40;46.90
16404;DHT22;8311;50.158;8.642;2022-12-18T16:56:52;16.40;46.90
16404;DHT22;8311;50.158;8.642;2022-12-18T16:59:46;16.50;47.00
16404;DHT22;8311;50.158;8.642;2022-12-18T17:02:39;16.50;47.00
16404;DHT22;8311;50.158;8.642;2022-12-18T17:05:33;16.40;47.10
16404;DHT22;8311;50.158;8.642;2022-12-18T17:08:26;16.40;47.20
16404;DHT22;8311;50.158;8.642;2022-12-18T17:11:19;16.50;47.30
16404;DHT22;8311;50.158;8.642;2022-12-18T17:14:15;16.50;47.30
16404;DHT22;8311;50.158;8.642;2022-12-18T17:17:09;16.50;47.30
16404;DHT22;8311;50.158;8.642;2022-12-18T17:20:12;16.50;47.40
16404;DHT22;8311;50.158;8.642;2022-12-18T17:23:05;16.50;47.40
16404;DHT22;8311;50.158;8.642;2022-12-18T17:25:58;16.60;47.40
16404;DHT22;8311;50.158;8.642;2022-12-18T17:28:51;16.60;47.40
16404;DHT22;8311;50.158;8.642;2022-12-18T17:31:46;16.60;47.50
16404;DHT22;8311;50.158;8.642;2022-12-18T17:34:39;16.60;47.40
16404;DHT22;8311;50.158;8.642;2022-12-18T17:37:32;16.60;47.50
16404;DHT22;8311;50.158;8.642;2022-12-18T17:40:26;16.60;47.50
16404;DHT22;8311;50.158;8.642;2022-12-18T17:43:19;16.70;47.60
16404;DHT22;8311;50.158;8.642;2022-12-18T17:46:14;16.70;47.60
16404;DHT22;8311;50.158;8.642;2022-12-18T17:49:09;16.70;47.60
16404;DHT22;8311;50.158;8.642;2022-12-18T17:52:02;16.70;47.60
16404;DHT22;8311;50.158;8.642;2022-12-18T17:54:55;16.70;47.60
16404;DHT22;8311;50.158;8.642;2022-12-18T17:57:48;16.80;47.60
16404;DHT22;8311;50.158;8.642;2022-12-18T18:00:41;16.80;47.70
16404;DHT22;8311;50.158;8.642;2022-12-18T18:03:34;16.80;47.70
16404;DHT22;8311;50.158;8.642;2022-12-18T18:06:31;16.80;47.70
16404;DHT22;8311;50.158;8.642;2022-12-18T18:09:29;16.80;47.70
16404;DHT22;8311;50.158;8.642;2022-12-18T18:12:22;16.80;47.70
16404;DHT22;8311;50.158;8.642;2022-12-18T18:15:33;16.80;47.60
16404;DHT22;8311;50.158;8.642;2022-12-18T18:18:29;16.90;47.70
16404;DHT22;8311;50.158;8.642;2022-12-18T18:21:22;16.90;47.70
16404;DHT22;8311;50.158;8.642;2022-12-18T18:24:20;16.90;47.70
16404;DHT22;8311;50.158;8.642;2022-12-18T18:27:14;16.90;47.70
16404;DHT22;8311;50.158;8.642;2022-12-18T18:30:09;16.90;47.70
16404;DHT22;8311;50.158;8.642;2022-12-18T18:33:02;16.90;47.80
16404;DHT22;8311;50.158;8.642;2022-12-18T18:36:03;16.90;48.30
16404;DHT22;8311;50.158;8.642;2022-12-18T18:38:58;16.90;47.70
16404;DHT22;8311;50.158;8.642;2022-12-18T18:41:53;16.90;47.70
16404;DHT22;8311;50.158;8.642;2022-12-18T18:44:46;16.90;47.70
16404;DHT22;8311;50.158;8.642;2022-12-18T18:47:40;17.00;47.80
16404;DHT22;8311;50.158;8.642;2022-12-18T18:50:33;17.00;47.80
16404;DHT22;8311;50.158;8.642;2022-12-18T18:53:27;16.90;47.70
16404;DHT22;8311;50.158;8.642;2022-12-18T18:56:22;17.00;47.80
16404;DHT22;8311;50.158;8.642;2022-12-18T18:59:38;17.00;47.80